<< Go Back

Gallup Gallop
Date: Jul. 13, 2014
Results by Everal Race Management
Contact for Race Timing

Gallup Gallop

5k Run/Walk

Age Group Results

July 13, 2014

Results Provided by Everal Race Management

Female Overall Winners
Total
Place Name City Bib No Age Overall Time Pace
1 Ashley Russo Kent City MI 120 18 12 20:04 6:28/M


Male Overall Winners
Total
Place Name City Bib No Age Overall Time Pace
1 Adam Richmond Detroit MI 231 26 1 16:38 5:22/M


Female Masters Winners
Total
Place Name City Bib No Age Overall Time Pace
1 Michelle Fields South Lyon MI 148 55 46 23:10 7:28/M


Male Masters Winners
Total
Place Name City Bib No Age Overall Time Pace
1 Jeff Rothstein Ann Arbor MI 322 52 8 19:44 6:22/M


Female 14 & under
Total
Place Name City Bib No Age Overall Time Pace
1 Maddie Brown Brighton MI 20 13 53 23:25 7:33/M
2 Elizabeth Warner Ann Arbor MI 132 8 72 24:57 8:03/M
3 Alexis Howard Whitmore Lake MI 144 12 90 27:35 8:54/M
4 Sofia Jimenez 315 7 132 30:14 9:45/M
5 Madeline Coe Novi MI 118 10 144 31:24 10:08/M
6 Mia Englesbe Ann Arbor MI 124 10 201 36:48 11:52/M
7 Ilana Metler Ann Arbor MI 25 10 203 36:51 11:53/M
8 Isabelle Howard Whitmore Lake MI 143 11 218 39:20 12:41/M
9 Lizzy Blackwell Ann Arbor MI 24 11 226 40:53 13:11/M


Male 14 & under
Total
Place Name City Bib No Age Overall Time Pace
1 Anthony Giamobile Ann Arbor MI 311 14 6 19:06 6:10/M
2 Kitson Dong Ann Arbor MI 237 14 34 22:36 7:17/M
3 Vimal Alokam Ypsilanti MI 43 11 59 23:50 7:41/M
4 Vibhav Alokam Ypsilanti MI 44 7 91 27:36 8:54/M
5 Christopher Randall Whitmore Lake MI 220 14 94 27:54 9:00/M
6 Francis Roderique Ann Arbor MI 288 10 106 28:42 9:15/M
7 Isaac Hess Ann Arbor MI 255 8 122 29:43 9:35/M
8 Bryce O'Rourke Royal Oak MI 240 12 124 29:49 9:37/M
9 Kellen Blackwell Ann Arbor MI 46 9 150 31:56 10:18/M
10 Luke Jimenez Ann Arbor MI 313 9 180 34:14 11:03/M
11 Nicholas Warner Ann Arbor MI 165 6 181 34:19 11:04/M
12 Benjamin Pryor Canton MI 253 7 191 34:50 11:14/M
13 Liam Blackwell Ann Arbor MI 45 6 206 37:44 12:10/M
14 Evan Marsee Ann Arbor MI 254 7 228 40:54 13:12/M


Female 15 to 19
Total
Place Name City Bib No Age Overall Time Pace
1 Lauren McMahon Royal Oak MI 149 17 25 21:33 6:57/M
2 Lindsay Larsen Scottville MI 119 18 27 21:42 7:00/M
3 Kristin Stobinski Lambertville MI 123 18 29 21:59 7:05/M
4 Lea Fields South Lyon MI 147 17 48 23:16 7:30/M
5 Heather Canales Temperance MI 117 19 56 23:43 7:39/M
6 Erica Jacobson Ann Arbor MI 16 19 108 29:00 9:21/M
7 Emily Farsakian Ann Arbor MI 15 19 114 29:20 9:28/M
8 Felecia Bianco Manchester MI 164 16 143 31:18 10:06/M
9 Gabrielle MacK-Blamy Novi MI 310 15 199 36:10 11:40/M


Male 15 to 19
Total
Place Name City Bib No Age Overall Time Pace
1 Justin Jones Rockford MI 304 17 5 18:07 5:51/M
2 Alex Clark Ann Arbor MI 210 17 24 21:25 6:55/M
3 Frankie Zeimet Ann Arbor MI 172 17 28 21:54 7:04/M
4 Benjamin Randall Whitmore Lake MI 221 16 75 25:32 8:14/M
5 Nathan Sorensen Cedar Springs MI 303 17 89 27:29 8:52/M
6 Mark Shelters Milford MI 226 17 177 34:10 11:01/M


Female 20 to 24
Total
Place Name City Bib No Age Overall Time Pace
1 Elaine Johnson Gregory MI 85 20 13 20:07 6:29/M
2 Mariah Ridal Holly MI 308 20 19 21:03 6:47/M
3 Claire Baudouin Newcastle ENG 166 23 23 21:19 6:53/M
4 Allison Johnson Pinckney MI 140 21 45 23:08 7:28/M
5 Arika Knannlein Adrian MI 292 20 63 24:08 7:47/M
6 Hilary Kerchner Ann Arbor MI 89 23 110 29:05 9:23/M
7 Darcy Rhoden Ann Arbor MI 324 24 117 29:27 9:30/M
8 Hayley Hoffman Plymouth MI 88 23 126 29:51 9:38/M
9 Chanell O'Rourke Royal Oak MI 138 21 127 29:53 9:38/M
10 Courtney Jenkins Pinckney MI 296 20 135 30:36 9:52/M
11 So Hae Park Ann Arbor MI 103 24 159 32:22 10:26/M
12 Katie Bethel South Lyon MI 9 21 161 32:25 10:27/M
13 Lize Van De Keere Ann Arbor MI 125 24 194 35:43 11:31/M
14 Maria Rodriguez Ypsilanti MI 18 24 204 36:51 11:53/M


Male 20 to 24
Total
Place Name City Bib No Age Overall Time Pace
1 Chris Wendt Oakland CA 305 23 2 16:45 5:24/M
2 Jumanne Lee Ann Arbor MI 209 23 9 19:58 6:26/M
3 Sam Esarey Ann Arbor MI 239 23 30 22:08 7:08/M
4 Jordan Boothe Ann Arbor MI 196 24 107 28:53 9:19/M
5 Eric Koch Dexter MI 168 20 119 29:33 9:32/M


Female 25 to 29
Total
Place Name City Bib No Age Overall Time Pace
1 Gina Hedberg Ann Arbor MI 122 27 32 22:25 7:14/M
2 Stephanie Becker Medford MA 316 28 70 24:49 8:00/M
3 Lauren Park Saline MI 77 26 129 30:06 9:43/M
4 Molly Fischhoff Ann Arbor MI 128 28 142 31:11 10:04/M
5 Kristen Higgins Kirkland WA 87 29 146 31:48 10:15/M
6 Zainab Gassem Nagras Ann Arbor MI 113 29 147 31:49 10:16/M
7 Sara Samuel Ann Arbor MI 94 29 169 33:38 10:51/M
8 Stephanie Shackelford Pinckney MI 145 29 171 33:42 10:52/M
9 Amanda Weaver Birmingham MI 83 29 174 34:07 11:00/M
10 Hope Springstead Wyandotte MI 101 26 183 34:26 11:06/M
11 Vanessa Lucas Ann Arbor MI 126 29 195 35:45 11:32/M
12 Kate Chulski Dundee MI 70 29 208 37:49 12:12/M
13 Zoe Zulakis Okemos MI 108 27 231 41:40 13:26/M
14 Tonya Gore Lincoln Park MI 100 28 238 45:11 14:35/M
15 Olivia Pierce Madison Heights MI 81 27 247 47:01 15:10/M
16 Darshay Martin Ann Arbor MI 23 25 252 49:39 16:01/M
17 Ashley James Ypsilanti MI 64 26 259 53:09 17:09/M
18 Elizabeth Hoffman Plymouth MI 61 29 262 56:12 18:08/M


Male 25 to 29
Total
Place Name City Bib No Age Overall Time Pace
1 Timm Betz Ann Arbor MI 235 27 3 17:35 5:40/M
2 Steve Masterson Brookline MA 317 29 4 17:45 5:44/M
3 Christian Proebsting Ann Arbor MI 234 29 11 20:03 6:28/M
4 Michael Driesenga Ann Arbor MI 229 29 15 20:33 6:38/M
5 James Edwards Ann Arbor MI 199 25 17 20:53 6:44/M
6 Adam Shelters Milford MI 227 29 20 21:07 6:49/M
7 John Rice Ann Arbor MI 216 27 26 21:39 6:59/M
8 Erik Guetschow Ann Arbor MI 230 25 39 22:51 7:22/M
9 Casey Thacker Ann Arbor MI 211 28 41 22:55 7:24/M
10 Douglas Roehler Oak Park MI 222 27 54 23:39 7:38/M
11 Ryan Masters Auburn Hills MI 207 26 60 24:05 7:46/M
12 Nick Byrne Ann Arbor MI 190 26 73 25:02 8:05/M
13 Dave Lund Oak Park MI 38 29 102 28:25 9:10/M
14 Matt Hondley Toledo OH 293 26 145 31:32 10:10/M
15 Nicholas Snider MI 214 29 166 33:06 10:41/M
16 Bryan James Ypsilanti MI 251 25 211 38:15 12:20/M
17 Martyn Haynes Ann Arbor MI 249 27 243 45:44 14:45/M


Female 30 to 34
Total
Place Name City Bib No Age Overall Time Pace
1 Katie Stotts Ann Arbor MI 135 32 36 22:40 7:19/M
2 Jocelyn Anderson Whitmore Lake MI 12 34 40 22:53 7:23/M
3 Christine Davie South Lyon MI 98 31 92 27:38 8:55/M
4 Suzanne Olsen Riverview MI 21 34 112 29:09 9:24/M
5 Kathryn Babion Rochester Hills MI 80 30 118 29:31 9:31/M
6 Katelyn Zasuwa Brighton MI 92 32 155 32:12 10:23/M
7 Marguerite Greiner Ann Arbor MI 5 32 157 32:20 10:26/M
8 Tina Perry Wyandotte MI 66 30 182 34:19 11:04/M
9 Sarah McGill Canton MI 150 34 187 34:32 11:08/M
10 Laura Stevens Livonia MI 129 34 188 34:40 11:11/M
11 Natalie Raghu Oak Park IL 13 32 200 36:34 11:48/M
12 Susan Gauvin Westland MI 7 32 210 37:54 12:14/M
13 Jessica Applin Lansing MI 156 30 237 45:09 14:34/M
14 Mary Lamb Wyandotte MI 176 34 239 45:11 14:35/M
15 Shanna Render-Jamyle Novi MI 312 34 251 48:52 15:46/M


Male 30 to 34
Total
Place Name City Bib No Age Overall Time Pace
1 Ted Volz Ann Arbor MI 224 32 14 20:27 6:36/M
2 Dan McGill Canton MI 212 32 22 21:13 6:51/M
3 Cameron Franc Ann Arbor MI 193 30 33 22:31 7:16/M
4 Chris Sizemore Highlands Ranch CO 32 34 37 22:46 7:21/M
5 Dave Nichols Ypsilanti MI 33 32 58 23:46 7:40/M
6 Jax Milano Dearborn MI 29 32 95 27:55 9:00/M
7 Jeremy Allen Ypsilanti MI 40 30 109 29:01 9:22/M
8 Nathan Hicks Tecumseh MI 27 31 158 32:21 10:26/M


Female 35 to 39
Total
Place Name City Bib No Age Overall Time Pace
1 Teresa Cook Dearborn MI 1 35 21 21:10 6:50/M
2 Elizabeth Molina Milford MI 285 36 57 23:45 7:40/M
3 Jill Klumpp Fenton MI 116 36 77 25:36 8:15/M
4 Christy McGee Saline MI 19 37 82 26:32 8:34/M
5 Ann Hess Ann Arbor MI 4 39 123 29:47 9:36/M
6 Yuka Nishimoto Ann Arbor MI 163 37 154 32:07 10:22/M
7 Anjanette Bunce Ann Arbor MI 86 38 156 32:18 10:25/M
8 Ginger Szymczak Ypsilanti MI 121 39 163 32:51 10:36/M
9 Karen Pryor Canton MI 10 38 190 34:43 11:12/M
10 Erica Fitzgerald Ann Arbor MI 50 39 197 35:53 11:35/M
11 Jennifer Shearer Livonia MI 93 39 205 37:10 11:59/M
12 Marissa Green Ypsilanti MI 62 36 219 39:33 12:45/M
13 Jennifer Warner Ann Arbor MI 162 38 223 40:02 12:55/M


Male 35 to 39
Total
Place Name City Bib No Age Overall Time Pace
1 Russell Marschall Livonia MI 238 35 7 19:42 6:21/M
2 Ed Feng Ann Arbor MI 205 37 31 22:18 7:12/M
3 Aaron Blakemore Milford MI 299 36 38 22:47 7:21/M
4 Benjamin Koester Ann Arbor MI 250 38 52 23:22 7:32/M
5 Sean Williams Ann Arbor MI 306 37 86 26:48 8:39/M
6 David Stevens Livonia MI 197 35 189 34:43 11:12/M
7 Martin Pryor Canton MI 219 37 192 34:52 11:15/M
8 Jeff Fant Ann Arbor MI 325 38 212 38:36 12:27/M


Female 40 to 44
Total
Place Name City Bib No Age Overall Time Pace
1 Tracey Cohen Farmington Hills M 56 42 47 23:15 7:30/M
2 Rebecca Trevethan Brooklyn NY 106 40 69 24:45 7:59/M
3 Laura Musgrave Milton VT 319 44 96 27:57 9:01/M
4 Jenny Alkema Ann Arbor MI 298 41 103 28:25 9:10/M
5 Cindy Gabriel Plymouth MI 127 44 111 29:08 9:24/M
6 Kristine Komives Ann Arbor MI 17 42 152 31:58 10:19/M
7 Mary Roderique Ann Arbor MI 287 40 164 32:51 10:36/M
8 Amy Stegmuller Dexter MI 97 41 167 33:24 10:46/M
9 Jennifer Howard Whitmore Lake MI 96 43 173 34:04 10:59/M
10 Carol Chase Ann Arbor MI 99 42 178 34:12 11:02/M
11 Kara Marsee Ann Arbor MI 130 43 227 40:54 13:12/M
12 Leah Tame Ypsilanti MI 160 41 240 45:13 14:35/M
13 Manya Lisse Ann Arbor MI 161 40 242 45:26 14:39/M
14 Tiffany O'Rourke Royal Oak MI 137 42 254 51:53 16:44/M
15 Heather Stark Brighton MI 55 44 257 52:57 17:05/M
16 Melissa Daunt Flint MI 153 40 260 53:48 17:21/M
17 Melissa Berryhill Romulus MI 63 42 265 57:55 18:41/M


Male 40 to 44
Total
Place Name City Bib No Age Overall Time Pace
1 Nate Trevethan Brooklyn NY 215 40 16 20:41 6:40/M
2 Paul Wisniewski Ann Arbor MI 302 40 18 20:59 6:46/M
3 Nathan Voght Howell MI 204 42 43 23:02 7:26/M
4 Matt Blamy Novi 309 44 71 24:56 8:03/M
5 Peter Treiber Ann Arbor MI 218 40 105 28:39 9:15/M
6 Benjamin Jimenez Ann Arbor MI 314 40 133 30:24 9:48/M
7 Shawn Wilson Canton MI 42 40 148 31:52 10:17/M
8 Robert Russell Ann Arbor MI 31 44 196 35:51 11:34/M
9 Michael Englesbe Ann Arbor MI 245 43 202 36:49 11:53/M
10 Adam Blackwell Ann Arbor MI 28 44 207 37:45 12:11/M
11 David Howard Whitmore Lake MI 307 41 225 40:24 13:02/M


Female 45 to 49
Total
Place Name City Bib No Age Overall Time Pace
1 Carmen Green-Lee Ann Arbor MI 142 49 49 23:17 7:31/M
2 Jennifer Fike Ann Arbor MI 146 46 51 23:21 7:32/M
3 Amy Mikhoil Ann Arbor MI 283 46 61 24:07 7:47/M
4 Kelly Kurtz Ann Arbor MI 65 48 79 26:02 8:24/M
5 Mona Newcomb Brighton MI 295 49 84 26:41 8:36/M
6 Tricia Jones Ann Arbor MI 68 49 162 32:28 10:28/M
7 Jackie Jenkins Pinckney MI 297 49 170 33:41 10:52/M
8 Kimberly Koning-Randall Whitmore Lake MI 110 47 172 34:01 10:58/M
9 Christine Heron Swartz Creek MI 73 45 175 34:08 11:01/M
10 Luven Marie Tejero Ann Arbor MI 136 46 193 35:10 11:21/M
11 Kathy Shaw Ypsilanti MI 84 48 209 37:52 12:13/M
12 Susan Hagood Livonia MI 95 49 222 40:00 12:54/M
13 Karen Brewer Whitmore Lake MI 131 48 258 52:58 17:05/M


Male 45 to 49
Total
Place Name City Bib No Age Overall Time Pace
1 Steve Hevwager Canton MI 286 45 74 25:11 8:07/M
2 Brian Newcomb 294 45 85 26:42 8:37/M
3 Steve Farsakian Ann Arbor MI 41 46 115 29:23 9:29/M
4 Dave Bianco Manchester MI 178 46 128 30:05 9:42/M
5 Shawn Bilas Hartland MI 179 48 136 30:36 9:52/M
6 Paul Jefferies Ann Arbor MI 34 47 149 31:54 10:17/M
7 Tim McKay Ann Arbor MI 187 49 165 33:04 10:40/M
8 Ken Alexander Ann Arbor MI 182 45 224 40:20 13:01/M
9 John Stachowiak Grand Blanc MI 30 45 241 45:14 14:35/M


Female 50 to 54
Total
Place Name City Bib No Age Overall Time Pace
1 Sally Petersen Ann Arbor MI 151 50 66 24:21 7:51/M
2 Stacie Bethel South Lyon MI 11 50 113 29:11 9:25/M
3 Diane Johnson Pinckney MI 141 50 130 30:12 9:45/M
4 Marjorie Suhre Fenton MI 75 52 134 30:26 9:49/M
5 Carol Hisscock Ann Arbor MI 139 52 140 30:49 9:56/M
6 Jennifer Triffo Brighton MI 54 53 151 31:57 10:18/M
7 Amy Daybird Brighton MI 47 51 214 38:56 12:34/M
8 Lynda Heinig Brighton MI 155 52 235 44:35 14:23/M


Male 50 to 54
Total
Place Name City Bib No Age Overall Time Pace
1 Tom Cornellier Novi MI 185 51 55 23:41 7:38/M
2 Christopher Collins Ann Arbor MI 200 52 68 24:26 7:53/M
3 Michael Williams Ann Arbor MI 186 53 76 25:33 8:15/M
4 Kenneth Morley Ann Arbor MI 244 53 88 27:15 8:47/M
5 Ed Hisscock Ann Arbor MI 252 51 141 31:04 10:01/M
6 Bob Ammon Allen Park MI 208 50 184 34:29 11:07/M
7 Robert Triffo Brighton MI 173 53 250 48:04 15:30/M


Female 55 to 59
Total
Place Name City Bib No Age Overall Time Pace
1 Deborah Ternes Ann Arbor MI 115 58 99 28:15 9:07/M
2 Kate Young Ann Arbor MI 102 56 101 28:20 9:08/M
3 Amy Meltzer Ann Arbor MI 321 59 125 29:50 9:37/M
4 Anne Bibik Brighton MI 152 57 215 38:57 12:34/M
5 Kathleen Shelters Milford MI 60 58 220 39:44 12:49/M
6 Katharine Carney Arlington MI 2 57 233 43:35 14:04/M
7 Mary Glenn Novi MI 159 56 234 44:34 14:23/M
8 Kim Schatzel Ann Arbor MI 154 57 236 44:47 14:27/M
9 Nancy Pflasterer Ann Arbor MI 134 56 244 46:32 15:01/M
10 Debra Koch Dexter MI 48 58 253 51:47 16:42/M
11 Cheryl Render Ann Arbor MI 82 58 264 56:31 18:14/M


Male 55 to 59
Total
Place Name City Bib No Age Overall Time Pace
1 Mark Dixon Ann Arbor MI 320 57 42 22:56 7:24/M
2 Greg Scharer Houston TX 290 57 44 23:07 7:27/M
3 Jeff Barnett 282 59 62 24:08 7:47/M
4 Thomas Zeimet Ann Arbor MI 39 59 64 24:19 7:51/M
5 Joseph Craig Ann Arbor MI 206 57 81 26:24 8:31/M
6 Victor Dobrin Ypsilanti MI 223 57 87 26:57 8:42/M
7 Steve Hernander Ann Arbor MI 291 59 100 28:18 9:08/M
8 Doug Dormer Ann Arbor MI 323 59 153 32:06 10:21/M
9 Craig Spangler Bloomfield Hills M 201 59 179 34:13 11:02/M
10 David Myers Plymouth MI 213 57 186 34:31 11:08/M
11 Jay Pflasterer Ann Arbor MI 203 59 245 46:33 15:01/M


Female 60 to 64
Total
Place Name City Bib No Age Overall Time Pace
1 Diane Scarpace Ann Arbor MI 26 60 93 27:53 9:00/M
2 Liz Perri Ann Arbor MI 72 64 116 29:26 9:30/M
3 Jeannie Fisher Ann Arbor MI 14 61 137 30:44 9:55/M
4 Irene Heinz Ypsilanti MI 105 61 185 34:31 11:08/M
5 Debbie Soash Canton MI 49 61 198 36:04 11:38/M
6 Phyllis M. White Romulus MI 58 64 213 38:54 12:33/M
7 Carole Galea Ann Arbor MI 90 62 217 39:06 12:37/M
8 Sarah Waldman Garden City MI 79 60 230 41:35 13:25/M
9 Susan Crabb Ann Arbor MI 76 60 232 41:41 13:27/M
10 Jacqueline Applin Mcmillan MI 91 64 255 52:06 16:48/M


Male 64 to 64
Total
Place Name City Bib No Age Overall Time Pace
1 John Tarkowski Northville MI 228 61 10 19:59 6:27/M
2 Mike Manz Ann Arbor MI 233 60 35 22:39 7:18/M
3 Fritz Yunck Ann Arbor MI 183 61 50 23:20 7:32/M
4 Larry Preston Lima NY 184 62 65 24:20 7:51/M
5 Mitchell Garner Ann Arbor MI 37 64 67 24:22 7:52/M
6 Eugene Herrera Ann Arbor MI 36 64 80 26:14 8:28/M
7 David Benedict Brighton MI 232 61 83 26:37 8:35/M
8 Bob Cranson Ann Arbor MI 202 64 97 28:01 9:02/M
9 Wayne Evron Pittsburgh PA 181 60 104 28:28 9:11/M
10 Glenn Dong Ann Arbor MI 236 61 139 30:47 9:56/M
11 Glenn Waldman Garden City MI 171 64 176 34:09 11:01/M
12 Martin Fischhoff Ann Arbor MI 195 64 221 39:55 12:53/M


Female 65 to 69
Total
Place Name City Bib No Age Overall Time Pace
1 Mary Ann Hoffman Plymouth MI 59 66 246 46:54 15:08/M
2 Connie Kelly Holt MI 284 65 256 52:07 16:49/M
3 Janet Keller Ann Arbor MI 6 68 261 55:08 17:47/M


Male 65 to 69
Total
Place Name City Bib No Age Overall Time Pace
1 Brad Soash Canton MI 241 65 98 28:13 9:06/M
2 Bill Betts Ann Arbor MI 289 68 120 29:38 9:34/M
3 Owen Jansson Ann Arbor MI 217 69 121 29:39 9:34/M
4 Michael Galea Ann Arbor MI 188 65 131 30:13 9:45/M
5 Gregg Powsie Ann Arbor MI 318 65 168 33:33 10:49/M
6 Geoffrey Voght Ypsilanti MI 248 68 216 38:59 12:35/M


Female 70 to 74
Total
Place Name City Bib No Age Overall Time Pace
1 Judy Cohen Ann Arbor MI 157 70 249 47:22 15:17/M


Male 70 to 74
Total
Place Name City Bib No Age Overall Time Pace
1 Harlan Van Blaricum Dexter MI 35 73 78 25:46 8:19/M
2 Malcolm S Cohen Ann Arbor MI 174 72 138 30:45 9:55/M
3 Barry Hoffman Plymouth MI 192 73 263 56:13 18:08/M


Male 75 & up
Total
Place Name City Bib No Age Overall Time Pace
1 Joe Bianco Ann Arbor MI 177 76 160 32:23 10:27/M
2 Tom Whalen Ann Arbor MI 189 82 229 41:03 13:15/M
3 Ren Farley Ann Arbor MI 225 76 248 47:12 15:14/M